sensor_id;sensor_type;location;lat;lon;timestamp;pressure;altitude;pressure_sealevel;temperature;humidity
80184;BME280;69682;52.138;5.440;2023-07-28T00:00:28;100503.91;;;17.48;89.93
80184;BME280;69682;52.138;5.440;2023-07-28T00:02:54;100510.13;;;17.49;90.23
80184;BME280;69682;52.138;5.440;2023-07-28T00:05:21;100507.44;;;17.49;89.78
80184;BME280;69682;52.138;5.440;2023-07-28T00:07:48;100505.78;;;17.48;89.84
80184;BME280;69682;52.138;5.440;2023-07-28T00:10:14;100512.81;;;17.49;89.57
80184;BME280;69682;52.138;5.440;2023-07-28T00:12:41;100509.97;;;17.51;90.10
80184;BME280;69682;52.138;5.440;2023-07-28T00:15:08;100507.28;;;17.51;89.39
80184;BME280;69682;52.138;5.440;2023-07-28T00:17:34;100498.19;;;17.52;89.70
80184;BME280;69682;52.138;5.440;2023-07-28T00:20:01;100502.53;;;17.53;89.61
80184;BME280;69682;52.138;5.440;2023-07-28T00:22:29;100495.50;;;17.52;89.94
80184;BME280;69682;52.138;5.440;2023-07-28T00:24:55;100491.13;;;17.51;89.74
80184;BME280;69682;52.138;5.440;2023-07-28T00:27:22;100492.97;;;17.50;89.79
80184;BME280;69682;52.138;5.440;2023-07-28T00:29:49;100498.38;;;17.50;89.96
80184;BME280;69682;52.138;5.440;2023-07-28T00:32:15;100494.81;;;17.49;89.79
80184;BME280;69682;52.138;5.440;2023-07-28T00:34:42;100487.75;;;17.48;89.99
80184;BME280;69682;52.138;5.440;2023-07-28T00:37:08;100489.59;;;17.48;90.15
80184;BME280;69682;52.138;5.440;2023-07-28T00:39:35;100488.78;;;17.47;89.66
80184;BME280;69682;52.138;5.440;2023-07-28T00:42:01;100490.44;;;17.48;89.83
80184;BME280;69682;52.138;5.440;2023-07-28T00:44:28;100491.28;;;17.49;89.99
80184;BME280;69682;52.138;5.440;2023-07-28T00:46:54;100494.81;;;17.49;89.75
80184;BME280;69682;52.138;5.440;2023-07-28T00:49:22;100499.34;;;17.49;89.71
80184;BME280;69682;52.138;5.440;2023-07-28T00:51:49;100497.50;;;17.49;89.68
80184;BME280;69682;52.138;5.440;2023-07-28T00:54:17;100493.97;;;17.49;89.55
80184;BME280;69682;52.138;5.440;2023-07-28T00:56:43;100489.41;;;17.49;89.34
80184;BME280;69682;52.138;5.440;2023-07-28T00:59:11;100485.91;;;17.49;89.46
80184;BME280;69682;52.138;5.440;2023-07-28T01:01:37;100491.28;;;17.49;89.70
80184;BME280;69682;52.138;5.440;2023-07-28T01:04:04;100491.47;;;17.47;89.51
80184;BME280;69682;52.138;5.440;2023-07-28T01:06:44;100500.38;;;17.48;89.74
80184;BME280;69682;52.138;5.440;2023-07-28T01:09:16;100500.19;;;17.49;89.44
80184;BME280;69682;52.138;5.440;2023-07-28T01:11:57;100502.06;;;17.49;89.51
80184;BME280;69682;52.138;5.440;2023-07-28T01:14:25;100493.13;;;17.48;89.69
80184;BME280;69682;52.138;5.440;2023-07-28T01:16:51;100502.25;;;17.47;89.33
80184;BME280;69682;52.138;5.440;2023-07-28T01:19:21;100503.91;;;17.48;89.36
80184;BME280;69682;52.138;5.440;2023-07-28T01:21:57;100501.22;;;17.48;89.44
80184;BME280;69682;52.138;5.440;2023-07-28T01:24:52;100502.25;;;17.47;89.31
80184;BME280;69682;52.138;5.440;2023-07-28T01:27:22;100501.22;;;17.48;89.44
80184;BME280;69682;52.138;5.440;2023-07-28T01:29:48;100509.28;;;17.48;89.62
80184;BME280;69682;52.138;5.440;2023-07-28T01:32:15;100509.28;;;17.48;89.54
80184;BME280;69682;52.138;5.440;2023-07-28T01:34:42;100513.00;;;17.47;89.42
80184;BME280;69682;52.138;5.440;2023-07-28T01:37:08;100514.69;;;17.48;89.53
80184;BME280;69682;52.138;5.440;2023-07-28T01:39:35;100519.22;;;17.48;89.54
80184;BME280;69682;52.138;5.440;2023-07-28T01:42:01;100520.06;;;17.48;89.57
80184;BME280;69682;52.138;5.440;2023-07-28T01:44:28;100519.22;;;17.48;89.40
80184;BME280;69682;52.138;5.440;2023-07-28T01:46:55;100522.75;;;17.48;89.18
80184;BME280;69682;52.138;5.440;2023-07-28T01:49:21;100508.47;;;17.48;89.35
80184;BME280;69682;52.138;5.440;2023-07-28T01:51:48;100512.00;;;17.48;89.44
80184;BME280;69682;52.138;5.440;2023-07-28T01:54:14;100510.31;;;17.47;89.68
80184;BME280;69682;52.138;5.440;2023-07-28T01:56:41;100517.53;;;17.47;89.42
80184;BME280;69682;52.138;5.440;2023-07-28T01:59:07;100514.69;;;17.48;89.58
80184;BME280;69682;52.138;5.440;2023-07-28T02:01:34;100504.75;;;17.49;89.55
80184;BME280;69682;52.138;5.440;2023-07-28T02:04:01;100514.69;;;17.48;89.41
80184;BME280;69682;52.138;5.440;2023-07-28T02:06:28;100513.84;;;17.48;89.61
80184;BME280;69682;52.138;5.440;2023-07-28T02:08:55;100513.00;;;17.47;89.41
80184;BME280;69682;52.138;5.440;2023-07-28T02:11:21;100506.75;;;17.47;89.62
80184;BME280;69682;52.138;5.440;2023-07-28T02:13:48;100510.47;;;17.46;89.75
80184;BME280;69682;52.138;5.440;2023-07-28T02:16:14;100514.00;;;17.46;89.86
80184;BME280;69682;52.138;5.440;2023-07-28T02:18:41;100524.78;;;17.46;89.83
80184;BME280;69682;52.138;5.440;2023-07-28T02:21:10;100516.88;;;17.45;89.98
80184;BME280;69682;52.138;5.440;2023-07-28T02:23:37;100511.50;;;17.45;90.01
80184;BME280;69682;52.138;5.440;2023-07-28T02:26:03;100506.13;;;17.45;89.91
80184;BME280;69682;52.138;5.440;2023-07-28T02:28:30;100512.34;;;17.45;90.19
80184;BME280;69682;52.138;5.440;2023-07-28T02:30:57;100513.34;;;17.44;89.86
80184;BME280;69682;52.138;5.440;2023-07-28T02:33:23;100512.47;;;17.44;89.92
80184;BME280;69682;52.138;5.440;2023-07-28T02:35:50;100501.56;;;17.45;90.07
80184;BME280;69682;52.138;5.440;2023-07-28T02:38:17;100505.09;;;17.46;89.88
80184;BME280;69682;52.138;5.440;2023-07-28T02:40:43;100510.47;;;17.46;90.18
80184;BME280;69682;52.138;5.440;2023-07-28T02:43:10;100518.75;;;17.44;90.13
80184;BME280;69682;52.138;5.440;2023-07-28T02:45:36;100508.81;;;17.45;90.19
80184;BME280;69682;52.138;5.440;2023-07-28T02:48:03;100516.88;;;17.45;90.04
80184;BME280;69682;52.138;5.440;2023-07-28T02:50:30;100523.09;;;17.45;90.38
80184;BME280;69682;52.138;5.440;2023-07-28T02:52:57;100523.94;;;17.46;90.44
80184;BME280;69682;52.138;5.440;2023-07-28T02:55:23;100526.63;;;17.46;90.48
80184;BME280;69682;52.138;5.440;2023-07-28T02:57:50;100528.50;;;17.45;90.54
80184;BME280;69682;52.138;5.440;2023-07-28T03:00:16;100526.63;;;17.46;90.52
80184;BME280;69682;52.138;5.440;2023-07-28T03:02:43;100528.31;;;17.47;90.18
80184;BME280;69682;52.138;5.440;2023-07-28T03:05:10;100538.25;;;17.46;90.03
80184;BME280;69682;52.138;5.440;2023-07-28T03:07:36;100535.56;;;17.46;90.02
80184;BME280;69682;52.138;5.440;2023-07-28T03:10:03;100535.41;;;17.48;90.14
80184;BME280;69682;52.138;5.440;2023-07-28T03:12:30;100531.88;;;17.47;90.41
80184;BME280;69682;52.138;5.440;2023-07-28T03:14:56;100537.06;;;17.49;90.32
80184;BME280;69682;52.138;5.440;2023-07-28T03:17:23;100537.25;;;17.47;90.40
80184;BME280;69682;52.138;5.440;2023-07-28T03:19:51;100537.06;;;17.49;90.48
80184;BME280;69682;52.138;5.440;2023-07-28T03:22:18;100539.75;;;17.49;90.65
80184;BME280;69682;52.138;5.440;2023-07-28T03:24:44;100548.69;;;17.49;90.61
80184;BME280;69682;52.138;5.440;2023-07-28T03:27:12;100541.63;;;17.48;90.65
80184;BME280;69682;52.138;5.440;2023-07-28T03:29:39;100547.00;;;17.48;90.22
80184;BME280;69682;52.138;5.440;2023-07-28T03:32:06;100551.22;;;17.51;90.61
80184;BME280;69682;52.138;5.440;2023-07-28T03:34:32;100554.06;;;17.49;90.36
80184;BME280;69682;52.138;5.440;2023-07-28T03:36:59;100557.63;;;17.50;90.53
80184;BME280;69682;52.138;5.440;2023-07-28T03:39:26;100555.78;;;17.51;90.43
80184;BME280;69682;52.138;5.440;2023-07-28T03:41:52;100552.25;;;17.50;90.56
80184;BME280;69682;52.138;5.440;2023-07-28T03:44:19;100554.94;;;17.50;90.26
80184;BME280;69682;52.138;5.440;2023-07-28T03:46:46;100564.00;;;17.49;90.61
80184;BME280;69682;52.138;5.440;2023-07-28T03:49:13;100565.84;;;17.48;90.73
80184;BME280;69682;52.138;5.440;2023-07-28T03:51:39;100565.72;;;17.50;90.60
80184;BME280;69682;52.138;5.440;2023-07-28T03:54:06;100562.81;;;17.52;90.86
80184;BME280;69682;52.138;5.440;2023-07-28T03:56:33;100562.16;;;17.49;90.95
80184;BME280;69682;52.138;5.440;2023-07-28T03:59:00;100564.84;;;17.49;90.93
80184;BME280;69682;52.138;5.440;2023-07-28T04:01:26;100560.31;;;17.50;91.16
80184;BME280;69682;52.138;5.440;2023-07-28T04:03:53;100564.69;;;17.51;91.19
80184;BME280;69682;52.138;5.440;2023-07-28T04:06:39;100556.59;;;17.51;91.32
80184;BME280;69682;52.138;5.440;2023-07-28T04:09:06;100563.66;;;17.52;90.90
80184;BME280;69682;52.138;5.440;2023-07-28T04:11:33;100567.38;;;17.51;91.18
80184;BME280;69682;52.138;5.440;2023-07-28T04:14:00;100569.06;;;17.52;91.05
80184;BME280;69682;52.138;5.440;2023-07-28T04:16:26;100564.69;;;17.51;91.32
80184;BME280;69682;52.138;5.440;2023-07-28T04:18:53;100568.22;;;17.52;91.11
80184;BME280;69682;52.138;5.440;2023-07-28T04:21:19;100568.22;;;17.52;91.24
80184;BME280;69682;52.138;5.440;2023-07-28T04:23:46;100566.34;;;17.52;91.31
80184;BME280;69682;52.138;5.440;2023-07-28T04:26:13;100563.66;;;17.52;91.29
80184;BME280;69682;52.138;5.440;2023-07-28T04:28:40;100566.34;;;17.52;91.36
80184;BME280;69682;52.138;5.440;2023-07-28T04:31:06;100570.75;;;17.53;91.29
80184;BME280;69682;52.138;5.440;2023-07-28T04:33:33;100570.75;;;17.53;91.00
80184;BME280;69682;52.138;5.440;2023-07-28T04:36:03;100576.16;;;17.53;91.32
80184;BME280;69682;52.138;5.440;2023-07-28T04:38:29;100575.97;;;17.55;91.24
80184;BME280;69682;52.138;5.440;2023-07-28T04:40:56;100573.25;;;17.55;91.16
80184;BME280;69682;52.138;5.440;2023-07-28T04:43:22;100574.09;;;17.55;91.18
80184;BME280;69682;52.138;5.440;2023-07-28T04:45:49;100573.09;;;17.56;90.95
80184;BME280;69682;52.138;5.440;2023-07-28T04:48:15;100575.81;;;17.56;91.47
80184;BME280;69682;52.138;5.440;2023-07-28T04:50:42;100580.31;;;17.56;91.03
80184;BME280;69682;52.138;5.440;2023-07-28T04:53:08;100583.88;;;17.56;91.16
80184;BME280;69682;52.138;5.440;2023-07-28T04:55:35;100579.34;;;17.57;91.02
80184;BME280;69682;52.138;5.440;2023-07-28T04:58:02;100579.16;;;17.58;91.33
80184;BME280;69682;52.138;5.440;2023-07-28T05:00:28;100588.06;;;17.59;91.17
80184;BME280;69682;52.138;5.440;2023-07-28T05:02:55;100589.91;;;17.58;91.18
80184;BME280;69682;52.138;5.440;2023-07-28T05:05:22;100590.75;;;17.59;91.10
80184;BME280;69682;52.138;5.440;2023-07-28T05:07:48;100589.09;;;17.58;91.21
80184;BME280;69682;52.138;5.440;2023-07-28T05:10:15;100585.38;;;17.59;91.38
80184;BME280;69682;52.138;5.440;2023-07-28T05:12:42;100583.34;;;17.61;91.38
80184;BME280;69682;52.138;5.440;2023-07-28T05:15:08;100583.34;;;17.61;91.28
80184;BME280;69682;52.138;5.440;2023-07-28T05:17:37;100587.75;;;17.62;91.18
80184;BME280;69682;52.138;5.440;2023-07-28T05:20:04;100595.66;;;17.63;91.33
80184;BME280;69682;52.138;5.440;2023-07-28T05:22:30;100582.88;;;17.65;91.26
80184;BME280;69682;52.138;5.440;2023-07-28T05:24:57;100589.09;;;17.66;91.34
80184;BME280;69682;52.138;5.440;2023-07-28T05:27:24;100587.41;;;17.65;91.12
80184;BME280;69682;52.138;5.440;2023-07-28T05:29:50;100584.72;;;17.65;91.21
80184;BME280;69682;52.138;5.440;2023-07-28T05:32:17;100574.78;;;17.65;91.17
80184;BME280;69682;52.138;5.440;2023-07-28T05:34:43;100579.00;;;17.68;91.35
80184;BME280;69682;52.138;5.440;2023-07-28T05:37:10;100585.22;;;17.68;91.16
80184;BME280;69682;52.138;5.440;2023-07-28T05:39:37;100584.19;;;17.69;91.06
80184;BME280;69682;52.138;5.440;2023-07-28T05:42:03;100582.19;;;17.71;91.07
80184;BME280;69682;52.138;5.440;2023-07-28T05:44:30;100593.66;;;17.74;91.14
80184;BME280;69682;52.138;5.440;2023-07-28T05:46:56;100592.44;;;17.76;90.98
80184;BME280;69682;52.138;5.440;2023-07-28T05:49:23;100595.84;;;17.78;91.08
80184;BME280;69682;52.138;5.440;2023-07-28T05:51:50;100600.41;;;17.78;90.69
80184;BME280;69682;52.138;5.440;2023-07-28T05:54:16;100591.28;;;17.79;91.02
80184;BME280;69682;52.138;5.440;2023-07-28T05:56:43;100600.91;;;17.81;90.79
80184;BME280;69682;52.138;5.440;2023-07-28T05:59:10;100610.50;;;17.84;91.00
80184;BME280;69682;52.138;5.440;2023-07-28T06:01:36;100607.81;;;17.84;90.76
80184;BME280;69682;52.138;5.440;2023-07-28T06:04:03;100609.31;;;17.86;90.58
80184;BME280;69682;52.138;5.440;2023-07-28T06:06:30;100619.06;;;17.87;90.49
80184;BME280;69682;52.138;5.440;2023-07-28T06:08:56;100615.38;;;17.88;90.48
80184;BME280;69682;52.138;5.440;2023-07-28T06:11:24;100619.75;;;17.89;90.58
80184;BME280;69682;52.138;5.440;2023-07-28T06:13:50;100616.03;;;17.90;90.74
80184;BME280;69682;52.138;5.440;2023-07-28T06:16:16;100616.03;;;17.90;90.61
80184;BME280;69682;52.138;5.440;2023-07-28T06:18:43;100609.81;;;17.90;90.46
80184;BME280;69682;52.138;5.440;2023-07-28T06:21:10;100614.19;;;17.91;90.84
80184;BME280;69682;52.138;5.440;2023-07-28T06:23:36;100612.84;;;17.95;90.74
80184;BME280;69682;52.138;5.440;2023-07-28T06:26:03;100619.56;;;17.99;90.64
80184;BME280;69682;52.138;5.440;2023-07-28T06:28:29;100627.50;;;18.01;90.56
80184;BME280;69682;52.138;5.440;2023-07-28T06:30:57;100627.81;;;18.06;90.66
80184;BME280;69682;52.138;5.440;2023-07-28T06:33:25;100632.03;;;18.08;90.29
80184;BME280;69682;52.138;5.440;2023-07-28T06:35:51;100634.56;;;18.10;90.30
80184;BME280;69682;52.138;5.440;2023-07-28T06:38:18;100635.41;;;18.10;90.25
80184;BME280;69682;52.138;5.440;2023-07-28T06:40:45;100640.78;;;18.10;90.14
80184;BME280;69682;52.138;5.440;2023-07-28T06:43:12;100633.53;;;18.11;90.06
80184;BME280;69682;52.138;5.440;2023-07-28T06:45:38;100650.22;;;18.14;89.88
80184;BME280;69682;52.138;5.440;2023-07-28T06:48:05;100649.22;;;18.15;89.97
80184;BME280;69682;52.138;5.440;2023-07-28T06:50:32;100659.16;;;18.15;89.79
80184;BME280;69682;52.138;5.440;2023-07-28T06:52:59;100665.72;;;18.12;89.54
80184;BME280;69682;52.138;5.440;2023-07-28T06:55:25;100668.44;;;18.12;89.66
80184;BME280;69682;52.138;5.440;2023-07-28T06:57:52;100666.56;;;18.13;89.87
80184;BME280;69682;52.138;5.440;2023-07-28T07:00:18;100660.34;;;18.12;89.50
80184;BME280;69682;52.138;5.440;2023-07-28T07:02:45;100672.47;;;18.16;89.85
80184;BME280;69682;52.138;5.440;2023-07-28T07:05:11;100671.44;;;18.17;89.48
80184;BME280;69682;52.138;5.440;2023-07-28T07:07:40;100671.63;;;18.16;89.30
80184;BME280;69682;52.138;5.440;2023-07-28T07:10:07;100674.47;;;18.14;89.67
80184;BME280;69682;52.138;5.440;2023-07-28T07:12:35;100676.19;;;18.15;89.56
80184;BME280;69682;52.138;5.440;2023-07-28T07:15:02;100670.59;;;18.17;89.60
80184;BME280;69682;52.138;5.440;2023-07-28T07:17:29;100671.28;;;18.19;89.56
80184;BME280;69682;52.138;5.440;2023-07-28T07:19:56;100679.22;;;18.21;89.57
80184;BME280;69682;52.138;5.440;2023-07-28T07:22:22;100680.69;;;18.23;89.74
80184;BME280;69682;52.138;5.440;2023-07-28T07:24:49;100681.72;;;18.22;89.22
80184;BME280;69682;52.138;5.440;2023-07-28T07:27:15;100687.94;;;18.23;89.31
80184;BME280;69682;52.138;5.440;2023-07-28T07:29:42;100682.41;;;18.24;89.35
80184;BME280;69682;52.138;5.440;2023-07-28T07:32:08;100692.16;;;18.25;89.42
80184;BME280;69682;52.138;5.440;2023-07-28T07:34:37;100694.72;;;18.27;89.15
80184;BME280;69682;52.138;5.440;2023-07-28T07:37:04;100695.34;;;18.29;89.02
80184;BME280;69682;52.138;5.440;2023-07-28T07:39:31;100702.47;;;18.30;89.05
80184;BME280;69682;52.138;5.440;2023-07-28T07:41:58;100702.28;;;18.31;88.84
80184;BME280;69682;52.138;5.440;2023-07-28T07:44:25;100704.97;;;18.31;88.75
80184;BME280;69682;52.138;5.440;2023-07-28T07:46:52;100706.66;;;18.32;88.83
80184;BME280;69682;52.138;5.440;2023-07-28T07:49:18;100712.72;;;18.34;88.87
80184;BME280;69682;52.138;5.440;2023-07-28T07:51:45;100716.09;;;18.36;89.02
80184;BME280;69682;52.138;5.440;2023-07-28T07:54:12;100711.38;;;18.38;88.62
80184;BME280;69682;52.138;5.440;2023-07-28T07:56:42;100723.66;;;18.41;88.73
80184;BME280;69682;52.138;5.440;2023-07-28T07:59:08;100720.81;;;18.43;88.53
80184;BME280;69682;52.138;5.440;2023-07-28T08:01:35;100721.28;;;18.46;88.75
80184;BME280;69682;52.138;5.440;2023-07-28T08:04:02;100727.88;;;18.52;88.14
80184;BME280;69682;52.138;5.440;2023-07-28T08:06:29;100725.50;;;18.57;88.09
80184;BME280;69682;52.138;5.440;2023-07-28T08:08:55;100739.34;;;18.62;87.94
80184;BME280;69682;52.138;5.440;2023-07-28T08:11:23;100729.88;;;18.66;87.85
80184;BME280;69682;52.138;5.440;2023-07-28T08:13:49;100732.91;;;18.71;87.16
80184;BME280;69682;52.138;5.440;2023-07-28T08:16:16;100731.41;;;18.77;86.79
80184;BME280;69682;52.138;5.440;2023-07-28T08:18:42;100727.47;;;18.79;86.73
80184;BME280;69682;52.138;5.440;2023-07-28T08:21:09;100733.06;;;18.86;86.62
80184;BME280;69682;52.138;5.440;2023-07-28T08:23:36;100724.75;;;18.96;86.63
80184;BME280;69682;52.138;5.440;2023-07-28T08:26:02;100733.50;;;19.06;85.93
80184;BME280;69682;52.138;5.440;2023-07-28T08:28:30;100732.44;;;19.15;85.91
80184;BME280;69682;52.138;5.440;2023-07-28T08:30:56;100733.25;;;19.24;85.73
80184;BME280;69682;52.138;5.440;2023-07-28T08:33:24;100739.97;;;19.28;85.21
80184;BME280;69682;52.138;5.440;2023-07-28T08:35:51;100741.28;;;19.32;85.46
80184;BME280;69682;52.138;5.440;2023-07-28T08:38:18;100738.38;;;19.42;85.60
80184;BME280;69682;52.138;5.440;2023-07-28T08:40:44;100745.44;;;19.51;84.94
80184;BME280;69682;52.138;5.440;2023-07-28T08:43:11;100743.41;;;19.53;84.03
80184;BME280;69682;52.138;5.440;2023-07-28T08:45:38;100740.69;;;19.53;84.47
80184;BME280;69682;52.138;5.440;2023-07-28T08:48:05;100746.75;;;19.55;83.84
80184;BME280;69682;52.138;5.440;2023-07-28T08:50:32;100753.69;;;19.49;83.90
80184;BME280;69682;52.138;5.440;2023-07-28T08:52:59;100753.53;;;19.51;84.19
80184;BME280;69682;52.138;5.440;2023-07-28T08:55:26;100747.78;;;19.54;83.82
80184;BME280;69682;52.138;5.440;2023-07-28T08:57:52;100744.88;;;19.56;84.14
80184;BME280;69682;52.138;5.440;2023-07-28T09:00:19;100749.09;;;19.58;83.76
80184;BME280;69682;52.138;5.440;2023-07-28T09:02:48;100756.84;;;19.61;83.95
80184;BME280;69682;52.138;5.440;2023-07-28T09:05:19;100751.97;;;19.65;83.87
80184;BME280;69682;52.138;5.440;2023-07-28T09:07:46;100755.78;;;19.70;83.68
80184;BME280;69682;52.138;5.440;2023-07-28T09:10:14;100747.00;;;19.77;83.68
80184;BME280;69682;52.138;5.440;2023-07-28T09:12:48;100752.03;;;19.80;83.33
80184;BME280;69682;52.138;5.440;2023-07-28T09:15:15;100752.16;;;19.86;82.99
80184;BME280;69682;52.138;5.440;2023-07-28T09:17:44;100760.59;;;19.91;81.86
80184;BME280;69682;52.138;5.440;2023-07-28T09:20:17;100757.31;;;19.96;81.65
80184;BME280;69682;52.138;5.440;2023-07-28T09:22:44;100764.72;;;20.02;82.07
80184;BME280;69682;52.138;5.440;2023-07-28T09:25:12;100760.84;;;20.19;81.50
80184;BME280;69682;52.138;5.440;2023-07-28T09:27:39;100761.56;;;20.36;80.37
80184;BME280;69682;52.138;5.440;2023-07-28T09:30:06;100759.63;;;20.45;80.30
80184;BME280;69682;52.138;5.440;2023-07-28T09:32:34;100762.28;;;20.53;81.13
80184;BME280;69682;52.138;5.440;2023-07-28T09:37:34;100758.91;;;20.51;79.22
80184;BME280;69682;52.138;5.440;2023-07-28T09:40:02;100757.03;;;20.52;79.41
80184;BME280;69682;52.138;5.440;2023-07-28T09:42:31;100764.91;;;20.61;77.90
80184;BME280;69682;52.138;5.440;2023-07-28T09:44:58;100765.84;;;20.69;78.15
80184;BME280;69682;52.138;5.440;2023-07-28T09:47:25;100763.09;;;20.92;78.18
80184;BME280;69682;52.138;5.440;2023-07-28T09:49:53;100760.63;;;20.97;77.24
80184;BME280;69682;52.138;5.440;2023-07-28T09:52:22;100765.13;;;21.04;76.65
80184;BME280;69682;52.138;5.440;2023-07-28T09:54:52;100765.97;;;21.05;77.09
80184;BME280;69682;52.138;5.440;2023-07-28T09:57:23;100766.34;;;21.02;76.71
80184;BME280;69682;52.138;5.440;2023-07-28T09:59:52;100767.84;;;21.04;76.93
80184;BME280;69682;52.138;5.440;2023-07-28T10:02:21;100761.50;;;21.12;75.85
80184;BME280;69682;52.138;5.440;2023-07-28T10:04:47;100763.59;;;21.31;76.64
80184;BME280;69682;52.138;5.440;2023-07-28T10:07:14;100755.09;;;21.49;75.45
80184;BME280;69682;52.138;5.440;2023-07-28T10:09:41;100762.19;;;21.65;75.63
80184;BME280;69682;52.138;5.440;2023-07-28T10:12:17;100759.38;;;21.59;75.35
80184;BME280;69682;52.138;5.440;2023-07-28T10:14:44;100758.84;;;21.48;74.69
80184;BME280;69682;52.138;5.440;2023-07-28T10:17:16;100755.75;;;21.51;75.80
80184;BME280;69682;52.138;5.440;2023-07-28T10:19:43;100759.69;;;21.70;75.33
80184;BME280;69682;52.138;5.440;2023-07-28T10:22:11;100759.81;;;21.77;75.64
80184;BME280;69682;52.138;5.440;2023-07-28T10:24:56;100762.25;;;21.72;74.46
80184;BME280;69682;52.138;5.440;2023-07-28T10:29:58;100765.28;;;21.62;73.47
80184;BME280;69682;52.138;5.440;2023-07-28T10:32:27;100769.44;;;21.65;73.34
80184;BME280;69682;52.138;5.440;2023-07-28T10:35:00;100768.22;;;21.67;72.92
80184;BME280;69682;52.138;5.440;2023-07-28T10:37:27;100769.28;;;21.88;71.18
80184;BME280;69682;52.138;5.440;2023-07-28T10:40:28;100757.97;;;22.06;70.93
80184;BME280;69682;52.138;5.440;2023-07-28T10:43:01;100763.56;;;21.97;70.97
80184;BME280;69682;52.138;5.440;2023-07-28T10:45:30;100757.81;;;21.86;72.63
80184;BME280;69682;52.138;5.440;2023-07-28T10:47:58;100761.34;;;22.08;70.84
80184;BME280;69682;52.138;5.440;2023-07-28T10:50:27;100765.31;;;22.27;69.24
80184;BME280;69682;52.138;5.440;2023-07-28T10:52:55;100759.63;;;22.50;69.89
80184;BME280;69682;52.138;5.440;2023-07-28T10:55:24;100753.53;;;22.69;68.88
80184;BME280;69682;52.138;5.440;2023-07-28T10:57:52;100765.94;;;22.85;67.01
80184;BME280;69682;52.138;5.440;2023-07-28T11:00:22;100763.91;;;22.94;66.85
80184;BME280;69682;52.138;5.440;2023-07-28T11:02:52;100762.97;;;23.01;67.01
80184;BME280;69682;52.138;5.440;2023-07-28T11:05:23;100765.94;;;23.13;66.99
80184;BME280;69682;52.138;5.440;2023-07-28T11:07:55;100769.53;;;23.20;68.03
80184;BME280;69682;52.138;5.440;2023-07-28T11:10:22;100777.81;;;23.05;68.99
80184;BME280;69682;52.138;5.440;2023-07-28T11:12:51;100770.75;;;23.18;69.76
80184;BME280;69682;52.138;5.440;2023-07-28T11:15:18;100776.69;;;23.28;67.62
80184;BME280;69682;52.138;5.440;2023-07-28T11:17:47;100777.75;;;23.33;69.31
80184;BME280;69682;52.138;5.440;2023-07-28T11:22:40;100789.19;;;23.22;68.23
80184;BME280;69682;52.138;5.440;2023-07-28T11:25:06;100784.13;;;23.12;69.30
80184;BME280;69682;52.138;5.440;2023-07-28T11:27:36;100784.75;;;23.15;69.77
80184;BME280;69682;52.138;5.440;2023-07-28T11:30:04;100778.06;;;23.17;69.23
80184;BME280;69682;52.138;5.440;2023-07-28T11:32:34;100790.94;;;22.95;69.87
80184;BME280;69682;52.138;5.440;2023-07-28T11:35:08;100795.34;;;23.03;70.72
80184;BME280;69682;52.138;5.440;2023-07-28T11:37:37;100788.38;;;22.94;68.75
80184;BME280;69682;52.138;5.440;2023-07-28T11:40:06;100794.69;;;22.73;69.49
80184;BME280;69682;52.138;5.440;2023-07-28T11:42:41;100797.78;;;22.63;70.18
80184;BME280;69682;52.138;5.440;2023-07-28T11:45:11;100798.75;;;22.55;70.16
80184;BME280;69682;52.138;5.440;2023-07-28T11:47:38;100789.88;;;22.68;71.48
80184;BME280;69682;52.138;5.440;2023-07-28T11:50:05;100788.59;;;22.92;69.76
80184;BME280;69682;52.138;5.440;2023-07-28T11:52:33;100789.19;;;22.94;68.59
80184;BME280;69682;52.138;5.440;2023-07-28T11:55:00;100790.13;;;23.01;69.28
80184;BME280;69682;52.138;5.440;2023-07-28T11:57:28;100797.56;;;23.21;69.25
80184;BME280;69682;52.138;5.440;2023-07-28T11:59:57;100793.22;;;23.33;67.84
80184;BME280;69682;52.138;5.440;2023-07-28T12:02:25;100794.50;;;23.44;67.75
80184;BME280;69682;52.138;5.440;2023-07-28T12:04:53;100796.16;;;23.38;68.72
80184;BME280;69682;52.138;5.440;2023-07-28T12:07:33;100794.47;;;23.30;67.47
80184;BME280;69682;52.138;5.440;2023-07-28T12:10:04;100798.94;;;23.03;66.90
80184;BME280;69682;52.138;5.440;2023-07-28T12:12:39;100802.78;;;22.94;67.57
80184;BME280;69682;52.138;5.440;2023-07-28T12:15:27;100799.41;;;22.85;67.45
80184;BME280;69682;52.138;5.440;2023-07-28T12:18:11;100801.88;;;23.08;67.15
80184;BME280;69682;52.138;5.440;2023-07-28T12:20:43;100800.47;;;23.19;66.07
80184;BME280;69682;52.138;5.440;2023-07-28T12:23:18;100804.13;;;23.40;65.92
80184;BME280;69682;52.138;5.440;2023-07-28T12:25:49;100799.78;;;23.10;66.35
80184;BME280;69682;52.138;5.440;2023-07-28T12:28:17;100802.78;;;22.94;66.78
80184;BME280;69682;52.138;5.440;2023-07-28T12:30:45;100800.25;;;22.86;67.65
80184;BME280;69682;52.138;5.440;2023-07-28T12:33:12;100800.25;;;22.86;66.76
80184;BME280;69682;52.138;5.440;2023-07-28T12:35:41;100805.72;;;22.93;67.18
80184;BME280;69682;52.138;5.440;2023-07-28T12:38:10;100803.44;;;23.24;67.38
80184;BME280;69682;52.138;5.440;2023-07-28T12:40:40;100799.94;;;23.44;64.04
80184;BME280;69682;52.138;5.440;2023-07-28T12:43:09;100805.34;;;23.30;63.79
80184;BME280;69682;52.138;5.440;2023-07-28T12:45:56;100801.38;;;23.33;64.82
80184;BME280;69682;52.138;5.440;2023-07-28T12:48:26;100799.28;;;23.35;65.05
80184;BME280;69682;52.138;5.440;2023-07-28T12:50:52;100811.19;;;23.27;65.63
80184;BME280;69682;52.138;5.440;2023-07-28T12:53:22;100797.28;;;23.09;64.75
80184;BME280;69682;52.138;5.440;2023-07-28T12:55:49;100795.69;;;22.93;65.62
80184;BME280;69682;52.138;5.440;2023-07-28T12:58:19;100799.41;;;22.85;65.93
80184;BME280;69682;52.138;5.440;2023-07-28T13:00:49;100796.69;;;22.85;66.79